Time;durP1;ratioP1;P1;durP2;ratioP2;P2;SDS_P1;SDS_P2;PMS_P1;PMS_P2;Temp;Humidity;BMP_temperature;BMP_pressure;BME280_temperature;BME280_humidity;BME280_pressure;Samples;Min_cycle;Max_cycle;Signal;HPM_P1;HPM_P2
2022/12/24 00:01:07;;;;;;;49.40;36.95;;;;;;;;;;5057852;28;20031;-74
2022/12/24 00:03:33;;;;;;;48.45;35.85;;;;;;;;;;5055007;28;20044;-72
2022/12/24 00:05:58;;;;;;;39.83;31.70;;;;;;;;;;5066344;28;20455;-72
2022/12/24 00:08:23;;;;;;;38.72;33.53;;;;;;;;;;5067025;28;20355;-72
2022/12/24 00:10:52;;;;;;;35.95;31.60;;;;;;;;;;5067033;28;20013;-72
2022/12/24 00:13:18;;;;;;;49.15;38.65;;;;;;;;;;5069953;28;20528;-73
2022/12/24 00:15:43;;;;;;;70.47;53.28;;;;;;;;;;5062221;28;20024;-72
2022/12/24 00:18:08;;;;;;;136.32;103.85;;;;;;;;;;5060910;28;20447;-72
2022/12/24 00:20:34;;;;;;;254.57;202.82;;;;;;;;;;5058382;28;20343;-74
2022/12/24 00:22:59;;;;;;;182.55;141.20;;;;;;;;;;5069938;28;20044;-72
2022/12/24 00:25:24;;;;;;;188.23;143.27;;;;;;;;;;5071721;28;20020;-74
2022/12/24 00:27:49;;;;;;;138.25;106.65;;;;;;;;;;5071965;28;20423;-73
2022/12/24 00:30:15;;;;;;;119.13;89.93;;;;;;;;;;5060540;28;20024;-73
2022/12/24 00:32:40;;;;;;;252.57;194.20;;;;;;;;;;5076412;28;20454;-74
2022/12/24 00:35:06;;;;;;;254.63;193.60;;;;;;;;;;5063262;28;20091;-73
2022/12/24 00:37:31;;;;;;;271.10;202.13;;;;;;;;;;5057408;28;20534;-72
2022/12/24 00:39:56;;;;;;;212.30;149.18;;;;;;;;;;5068591;28;20037;-71
2022/12/24 00:42:21;;;;;;;158.10;112.55;;;;;;;;;;5069110;28;20099;-72
2022/12/24 00:44:47;;;;;;;179.30;122.63;;;;;;;;;;5067730;28;20033;-72
2022/12/24 00:47:12;;;;;;;202.57;134.45;;;;;;;;;;5065420;28;20024;-73
2022/12/24 00:49:38;;;;;;;167.93;121.15;;;;;;;;;;5073780;28;20075;-73
2022/12/24 00:52:03;;;;;;;141.32;103.85;;;;;;;;;;5070131;28;20016;-73
2022/12/24 00:54:28;;;;;;;118.47;86.35;;;;;;;;;;5059849;28;20155;-73
2022/12/24 00:56:54;;;;;;;190.00;143.02;;;;;;;;;;5060238;28;20073;-72
2022/12/24 00:59:19;;;;;;;204.25;144.88;;;;;;;;;;5072020;28;20363;-75
2022/12/24 01:01:45;;;;;;;154.13;114.50;;;;;;;;;;5060787;28;20032;-74
2022/12/24 01:06:54;;;;;;;175.70;127.47;;;;;;;;;;5068347;28;20484;-73
2022/12/24 01:09:20;;;;;;;158.93;119.07;;;;;;;;;;5062640;28;20032;-73
2022/12/24 01:11:45;;;;;;;98.03;72.53;;;;;;;;;;5071730;28;20024;-72
2022/12/24 01:14:10;;;;;;;115.88;91.10;;;;;;;;;;5067866;28;20052;-73
2022/12/24 01:16:36;;;;;;;67.18;51.47;;;;;;;;;;5064274;28;20032;-73
2022/12/24 01:19:01;;;;;;;46.85;37.05;;;;;;;;;;5066824;28;20116;-73
2022/12/24 01:21:26;;;;;;;34.53;28.15;;;;;;;;;;5060560;28;21090;-74
2022/12/24 01:23:52;;;;;;;33.85;27.10;;;;;;;;;;5060228;28;20366;-72
2022/12/24 01:26:17;;;;;;;31.58;27.05;;;;;;;;;;5064287;28;20032;-73
2022/12/24 01:28:42;;;;;;;38.75;31.10;;;;;;;;;;5071072;28;20035;-73
2022/12/24 01:31:12;;;;;;;91.32;70.80;;;;;;;;;;5068874;28;20035;-73
2022/12/24 01:33:37;;;;;;;32.25;27.50;;;;;;;;;;5073193;28;20063;-72
2022/12/24 01:36:03;;;;;;;62.95;47.22;;;;;;;;;;5066795;28;20063;-73
2022/12/24 01:38:28;;;;;;;43.55;36.35;;;;;;;;;;5055671;28;20040;-72
2022/12/24 01:43:37;;;;;;;68.22;52.97;;;;;;;;;;5067762;28;20085;-72
2022/12/24 01:46:13;;;;;;;67.35;52.45;;;;;;;;;;5070543;28;20040;-73
2022/12/24 01:48:38;;;;;;;60.30;47.83;;;;;;;;;;5069079;28;20541;-73
2022/12/24 01:51:03;;;;;;;65.03;51.47;;;;;;;;;;5071182;28;20086;-73
2022/12/24 01:53:30;;;;;;;59.22;49.08;;;;;;;;;;5068526;28;20020;-75
2022/12/24 01:55:56;;;;;;;84.47;63.95;;;;;;;;;;5058243;28;20021;-75
2022/12/24 01:58:21;;;;;;;130.63;102.43;;;;;;;;;;5070692;28;20066;-76
2022/12/24 02:00:47;;;;;;;161.75;116.38;;;;;;;;;;5060898;28;20036;-73
2022/12/24 02:03:12;;;;;;;114.05;90.47;;;;;;;;;;5069567;28;20092;-73
2022/12/24 02:05:42;;;;;;;105.07;79.55;;;;;;;;;;5067114;28;20039;-72
2022/12/24 02:08:07;;;;;;;;;;;;;;;;;;5067868;28;20063;-73
2022/12/24 02:10:33;;;;;;;41.40;33.28;;;;;;;;;;5058089;28;19951;-73
2022/12/24 02:12:59;;;;;;;75.85;61.75;;;;;;;;;;5059413;28;20019;-73
2022/12/24 02:15:25;;;;;;;77.80;57.70;;;;;;;;;;5069407;28;20016;-72
2022/12/24 02:17:58;;;;;;;120.13;94.18;;;;;;;;;;5070803;28;20032;-72
2022/12/24 02:20:26;;;;;;;117.03;95.43;;;;;;;;;;5064138;28;20058;-72
2022/12/24 02:23:06;;;;;;;138.55;101.75;;;;;;;;;;5063629;28;20064;-73
2022/12/24 02:25:31;;;;;;;150.10;110.68;;;;;;;;;;5061930;28;20031;-73
2022/12/24 02:27:57;;;;;;;125.07;97.57;;;;;;;;;;5065460;28;20032;-73
2022/12/24 02:30:23;;;;;;;91.60;73.28;;;;;;;;;;5072048;28;20497;-72
2022/12/24 02:32:55;;;;;;;75.78;60.13;;;;;;;;;;5070364;28;20021;-73
2022/12/24 02:35:24;;;;;;;35.85;27.63;;;;;;;;;;5069258;28;20111;-73
2022/12/24 02:37:49;;;;;;;38.43;31.53;;;;;;;;;;5071256;28;20078;-74
2022/12/24 02:40:23;;;;;;;29.90;25.30;;;;;;;;;;5063534;28;20378;-74
2022/12/24 02:42:50;;;;;;;32.08;25.63;;;;;;;;;;5063197;28;20111;-72
2022/12/24 02:45:17;;;;;;;28.23;24.48;;;;;;;;;;5061831;28;20031;-73
2022/12/24 02:47:43;;;;;;;101.53;67.78;;;;;;;;;;5065014;28;20487;-74
2022/12/24 02:50:09;;;;;;;112.15;77.97;;;;;;;;;;5071577;28;20044;-74
2022/12/24 02:52:37;;;;;;;99.38;68.30;;;;;;;;;;5061617;28;20085;-72
2022/12/24 02:55:10;;;;;;;169.68;117.30;;;;;;;;;;5065668;28;20028;-73
2022/12/24 02:57:35;;;;;;;120.00;87.50;;;;;;;;;;5061095;28;20036;-73
2022/12/24 03:00:03;;;;;;;137.13;94.70;;;;;;;;;;5067430;28;20055;-74
2022/12/24 03:02:28;;;;;;;136.07;92.00;;;;;;;;;;5071303;28;20059;-74
2022/12/24 03:05:12;;;;;;;103.00;70.75;;;;;;;;;;5070101;28;20056;-73
2022/12/24 03:07:43;;;;;;;75.43;50.85;;;;;;;;;;5057864;28;20021;-73
2022/12/24 03:10:15;;;;;;;54.70;40.40;;;;;;;;;;5062862;28;20029;-74
2022/12/24 03:12:43;;;;;;;52.63;37.63;;;;;;;;;;5061155;28;20062;-73
2022/12/24 03:15:11;;;;;;;34.72;26.60;;;;;;;;;;5069102;28;20029;-72
2022/12/24 03:17:37;;;;;;;27.98;22.23;;;;;;;;;;5073696;28;20027;-75
2022/12/24 03:20:04;;;;;;;25.08;20.98;;;;;;;;;;5069794;28;20481;-73
2022/12/24 03:22:30;;;;;;;20.25;15.95;;;;;;;;;;5068520;28;20040;-74
2022/12/24 03:24:55;;;;;;;32.90;25.13;;;;;;;;;;5064574;28;20039;-75
2022/12/24 03:27:21;;;;;;;24.25;20.40;;;;;;;;;;5055879;28;20077;-75
2022/12/24 03:29:46;;;;;;;64.00;48.60;;;;;;;;;;5066239;28;20462;-72
2022/12/24 03:32:12;;;;;;;37.88;29.67;;;;;;;;;;5071962;28;20114;-73
2022/12/24 03:34:37;;;;;;;32.22;24.60;;;;;;;;;;5071585;28;20025;-74
2022/12/24 03:37:03;;;;;;;38.40;28.25;;;;;;;;;;5072189;28;20338;-73
2022/12/24 03:39:28;;;;;;;97.05;63.63;;;;;;;;;;5067689;28;20399;-73
2022/12/24 03:41:54;;;;;;;76.47;50.67;;;;;;;;;;5058781;28;20062;-73
2022/12/24 03:44:19;;;;;;;135.57;89.50;;;;;;;;;;5067430;28;20535;-74
2022/12/24 03:46:44;;;;;;;126.82;83.30;;;;;;;;;;5056101;28;20670;-74
2022/12/24 03:49:09;;;;;;;147.48;94.03;;;;;;;;;;5064252;28;20542;-74
2022/12/24 03:51:35;;;;;;;87.75;61.10;;;;;;;;;;5067805;28;20035;-72
2022/12/24 03:54:00;;;;;;;110.18;78.20;;;;;;;;;;5062770;28;20095;-74
2022/12/24 03:56:25;;;;;;;154.32;105.05;;;;;;;;;;5056340;28;20105;-73
2022/12/24 03:58:51;;;;;;;141.30;95.18;;;;;;;;;;5071976;28;20128;-72
2022/12/24 04:01:16;;;;;;;98.60;71.55;;;;;;;;;;5065433;28;20047;-73
2022/12/24 04:03:41;;;;;;;143.55;95.22;;;;;;;;;;5064198;28;20020;-72
2022/12/24 04:06:08;;;;;;;110.53;79.55;;;;;;;;;;5065611;28;20028;-74
2022/12/24 04:08:34;;;;;;;73.07;54.70;;;;;;;;;;5061817;28;20031;-73
2022/12/24 04:10:59;;;;;;;50.13;37.65;;;;;;;;;;5055681;28;20036;-74
2022/12/24 04:13:24;;;;;;;72.10;55.97;;;;;;;;;;5059161;28;20021;-73
2022/12/24 04:15:59;;;;;;;151.30;115.50;;;;;;;;;;5062778;28;20345;-72
2022/12/24 04:18:25;;;;;;;65.15;53.15;;;;;;;;;;5061584;28;20111;-72
2022/12/24 04:20:50;;;;;;;324.42;229.80;;;;;;;;;;5068358;28;20210;-74
2022/12/24 04:23:16;;;;;;;346.25;251.63;;;;;;;;;;5069655;28;20028;-73
2022/12/24 04:25:41;;;;;;;157.70;114.00;;;;;;;;;;5069877;28;20032;-73
2022/12/24 04:28:06;;;;;;;106.47;80.38;;;;;;;;;;5069115;28;20182;-72
2022/12/24 04:30:31;;;;;;;45.33;35.15;;;;;;;;;;5065624;28;20036;-72
2022/12/24 04:32:57;;;;;;;32.53;27.85;;;;;;;;;;5067345;28;20054;-73
2022/12/24 04:35:22;;;;;;;192.23;131.70;;;;;;;;;;5068028;28;20027;-72
2022/12/24 04:37:47;;;;;;;121.53;84.90;;;;;;;;;;5060480;28;20071;-72
2022/12/24 04:40:13;;;;;;;155.68;102.93;;;;;;;;;;5067865;28;20063;-72
2022/12/24 04:42:38;;;;;;;196.10;132.55;;;;;;;;;;5069038;28;20032;-74
2022/12/24 04:45:03;;;;;;;152.80;98.72;;;;;;;;;;5068966;28;20325;-72
2022/12/24 04:47:29;;;;;;;128.43;90.07;;;;;;;;;;5067719;28;20351;-72
2022/12/24 04:49:54;;;;;;;87.00;60.60;;;;;;;;;;5066422;28;20033;-74
2022/12/24 04:52:19;;;;;;;57.10;42.67;;;;;;;;;;5066732;28;20042;-72
2022/12/24 04:54:45;;;;;;;46.05;36.70;;;;;;;;;;5063889;28;20447;-73
2022/12/24 04:57:10;;;;;;;44.08;35.08;;;;;;;;;;5058515;28;20568;-73
2022/12/24 04:59:35;;;;;;;39.35;31.48;;;;;;;;;;5057598;28;20487;-72
2022/12/24 05:02:00;;;;;;;45.97;36.40;;;;;;;;;;5059290;28;20398;-74
2022/12/24 05:04:26;;;;;;;47.60;38.85;;;;;;;;;;5056176;28;20032;-74
2022/12/24 05:06:51;;;;;;;44.33;30.70;;;;;;;;;;5065610;28;20116;-73
2022/12/24 05:09:16;;;;;;;40.53;24.38;;;;;;;;;;5058538;28;20051;-73
2022/12/24 05:11:42;;;;;;;33.10;20.90;;;;;;;;;;5057001;28;20497;-73
2022/12/24 05:14:07;;;;;;;26.85;16.58;;;;;;;;;;5066340;28;20039;-74
2022/12/24 05:16:32;;;;;;;19.55;15.30;;;;;;;;;;5067887;28;20031;-72
2022/12/24 05:18:57;;;;;;;20.13;14.88;;;;;;;;;;5068656;28;20472;-73
2022/12/24 05:21:23;;;;;;;39.22;34.97;;;;;;;;;;5067677;28;20024;-72
2022/12/24 05:26:37;;;;;;;39.13;28.75;;;;;;;;;;5068583;28;20474;-73
2022/12/24 05:29:04;;;;;;;29.38;22.25;;;;;;;;;;5065901;28;20111;-73
2022/12/24 05:31:30;;;;;;;25.77;21.00;;;;;;;;;;5058172;28;20029;-73
2022/12/24 05:33:56;;;;;;;29.70;26.50;;;;;;;;;;5058443;28;20039;-72
2022/12/24 05:36:21;;;;;;;27.98;23.33;;;;;;;;;;5064882;28;20976;-74
2022/12/24 05:38:47;;;;;;;46.40;38.22;;;;;;;;;;5067553;28;20085;-73
2022/12/24 05:41:12;;;;;;;77.07;63.63;;;;;;;;;;5067527;28;20107;-72
2022/12/24 05:43:37;;;;;;;37.97;31.67;;;;;;;;;;5068923;28;20140;-73
2022/12/24 05:46:04;;;;;;;29.75;23.85;;;;;;;;;;5065907;28;20391;-73
2022/12/24 05:48:29;;;;;;;166.27;130.25;;;;;;;;;;5065807;28;20487;-73
2022/12/24 05:50:55;;;;;;;112.20;90.18;;;;;;;;;;5068157;28;20051;-73
2022/12/24 05:53:20;;;;;;;204.45;152.20;;;;;;;;;;5067725;28;20020;-74
2022/12/24 05:55:45;;;;;;;229.63;162.63;;;;;;;;;;5066737;28;20090;-73
2022/12/24 05:58:11;;;;;;;227.32;154.02;;;;;;;;;;5065079;28;20048;-74
2022/12/24 06:00:36;;;;;;;253.98;162.23;;;;;;;;;;5068207;28;20036;-72
2022/12/24 06:03:02;;;;;;;152.77;103.30;;;;;;;;;;5070262;28;20050;-74
2022/12/24 06:05:27;;;;;;;118.05;81.38;;;;;;;;;;5066610;28;20381;-73
2022/12/24 06:07:52;;;;;;;198.10;147.43;;;;;;;;;;5067082;28;20393;-73
2022/12/24 06:10:18;;;;;;;264.10;209.68;;;;;;;;;;5069694;28;20083;-72
2022/12/24 06:12:43;;;;;;;191.18;145.40;;;;;;;;;;5067097;28;20390;-74
2022/12/24 06:15:09;;;;;;;210.38;160.68;;;;;;;;;;5070749;28;20036;-74
2022/12/24 06:17:34;;;;;;;150.35;118.60;;;;;;;;;;5064350;28;20035;-73
2022/12/24 06:19:59;;;;;;;116.03;94.65;;;;;;;;;;5063801;28;20123;-74
2022/12/24 06:22:25;;;;;;;85.88;71.32;;;;;;;;;;5068943;28;20024;-73
2022/12/24 06:24:50;;;;;;;62.47;49.80;;;;;;;;;;5064309;28;20997;-74
2022/12/24 06:27:15;;;;;;;123.47;101.45;;;;;;;;;;5059604;28;20367;-73
2022/12/24 06:29:41;;;;;;;107.95;93.50;;;;;;;;;;5068166;28;20359;-73
2022/12/24 06:32:06;;;;;;;92.38;76.28;;;;;;;;;;5068437;28;20035;-73
2022/12/24 06:34:31;;;;;;;104.80;86.75;;;;;;;;;;5066736;28;20115;-73
2022/12/24 06:36:56;;;;;;;114.93;92.68;;;;;;;;;;5065355;28;20020;-73
2022/12/24 06:39:22;;;;;;;174.85;135.15;;;;;;;;;;5071025;28;20036;-74
2022/12/24 06:41:47;;;;;;;132.38;102.90;;;;;;;;;;5066737;28;20095;-74
2022/12/24 06:44:12;;;;;;;139.23;110.25;;;;;;;;;;5068314;28;20031;-73
2022/12/24 06:46:38;;;;;;;531.70;401.60;;;;;;;;;;5063576;28;20092;-72
2022/12/24 06:49:03;;;;;;;165.30;124.90;;;;;;;;;;5067474;28;20074;-74
2022/12/24 06:51:28;;;;;;;170.05;134.82;;;;;;;;;;5068288;28;20042;-72
2022/12/24 06:53:54;;;;;;;333.50;265.35;;;;;;;;;;5063466;28;20120;-73
2022/12/24 06:56:19;;;;;;;277.20;232.65;;;;;;;;;;5058383;28;20472;-74
2022/12/24 06:58:45;;;;;;;242.10;201.00;;;;;;;;;;5063838;28;20082;-73
2022/12/24 07:01:12;;;;;;;330.70;262.15;;;;;;;;;;5070181;28;20028;-74
2022/12/24 07:03:38;;;;;;;321.60;253.45;;;;;;;;;;5067441;28;20085;-74
2022/12/24 07:06:03;;;;;;;259.35;204.18;;;;;;;;;;5066027;28;20437;-79
2022/12/24 07:08:29;;;;;;;311.30;231.18;;;;;;;;;;5068322;28;20074;-73
2022/12/24 07:10:55;;;;;;;411.23;314.15;;;;;;;;;;5072860;28;20031;-71
2022/12/24 07:13:20;;;;;;;362.38;284.35;;;;;;;;;;5065738;28;20043;-74
2022/12/24 07:15:45;;;;;;;319.60;269.40;;;;;;;;;;5050354;28;20685;-72
2022/12/24 07:18:11;;;;;;;265.48;236.13;;;;;;;;;;5052195;28;20039;-73
2022/12/24 07:20:36;;;;;;;266.60;230.88;;;;;;;;;;5057220;28;20028;-78
2022/12/24 07:23:02;;;;;;;265.80;226.88;;;;;;;;;;5059560;28;20108;-75
2022/12/24 07:25:27;;;;;;;350.02;273.63;;;;;;;;;;5059693;28;20332;-80
2022/12/24 07:27:52;;;;;;;392.83;301.10;;;;;;;;;;5060673;28;20059;-77
2022/12/24 07:30:18;;;;;;;376.88;305.40;;;;;;;;;;5059894;28;20127;-75
2022/12/24 07:32:43;;;;;;;449.85;365.38;;;;;;;;;;5064750;28;20028;-75
2022/12/24 07:35:08;;;;;;;428.05;348.35;;;;;;;;;;5064276;28;20020;-76
2022/12/24 07:37:33;;;;;;;864.13;655.72;;;;;;;;;;5061544;28;20044;-76
2022/12/24 07:39:59;;;;;;;350.75;268.40;;;;;;;;;;5062449;28;20796;-80
2022/12/24 07:42:24;;;;;;;478.08;337.60;;;;;;;;;;5071500;28;20445;-76
2022/12/24 07:44:50;;;;;;;436.90;302.33;;;;;;;;;;5069754;28;20020;-74
2022/12/24 07:47:15;;;;;;;165.57;122.30;;;;;;;;;;5072549;28;20074;-80
2022/12/24 07:49:40;;;;;;;143.35;107.22;;;;;;;;;;5067385;28;20024;-79
2022/12/24 07:52:06;;;;;;;102.32;81.68;;;;;;;;;;5074711;28;20028;-72
2022/12/24 07:54:31;;;;;;;76.00;56.78;;;;;;;;;;5081082;28;20024;-77
2022/12/24 07:56:56;;;;;;;177.00;146.55;;;;;;;;;;5087124;28;20343;-76
2022/12/24 07:59:21;;;;;;;150.07;125.32;;;;;;;;;;5078037;28;20032;-75
2022/12/24 08:01:47;;;;;;;68.20;57.60;;;;;;;;;;5087669;28;20034;-73
2022/12/24 08:04:12;;;;;;;61.30;51.85;;;;;;;;;;5095479;28;20098;-72
2022/12/24 08:06:37;;;;;;;148.70;101.68;;;;;;;;;;5095580;28;20107;-73
2022/12/24 08:09:03;;;;;;;445.35;309.33;;;;;;;;;;5094260;28;20087;-73
2022/12/24 08:11:28;;;;;;;412.13;278.63;;;;;;;;;;5095454;28;20107;-74
2022/12/24 08:13:53;;;;;;;221.63;142.30;;;;;;;;;;5091332;28;20047;-77
2022/12/24 08:16:19;;;;;;;365.38;240.35;;;;;;;;;;5078125;28;20118;-75
2022/12/24 08:18:44;;;;;;;237.05;154.55;;;;;;;;;;5084490;28;20059;-75
2022/12/24 08:21:09;;;;;;;242.38;161.40;;;;;;;;;;5080269;28;20161;-77
2022/12/24 08:23:36;;;;;;;246.05;164.70;;;;;;;;;;5084497;28;20050;-77
2022/12/24 08:26:01;;;;;;;150.15;100.25;;;;;;;;;;5078945;28;20032;-74
2022/12/24 08:28:26;;;;;;;160.55;130.52;;;;;;;;;;5076813;28;20043;-73
2022/12/24 08:30:52;;;;;;;189.55;142.15;;;;;;;;;;5089670;28;20019;-72
2022/12/24 08:33:17;;;;;;;144.40;105.85;;;;;;;;;;5079283;28;20090;-73
2022/12/24 08:35:46;;;;;;;270.63;196.20;;;;;;;;;;5079281;28;20475;-73
2022/12/24 08:38:12;;;;;;;271.27;199.95;;;;;;;;;;5086295;28;20031;-74
2022/12/24 08:40:37;;;;;;;118.72;94.82;;;;;;;;;;5092413;28;20052;-73
2022/12/24 08:43:02;;;;;;;176.23;120.43;;;;;;;;;;5085896;28;20020;-73
2022/12/24 08:45:27;;;;;;;245.00;174.60;;;;;;;;;;5084108;28;20016;-75
2022/12/24 08:47:53;;;;;;;346.02;225.65;;;;;;;;;;5088961;28;20020;-73
2022/12/24 08:50:18;;;;;;;133.38;95.68;;;;;;;;;;5076618;28;20093;-74
2022/12/24 08:52:43;;;;;;;132.52;111.03;;;;;;;;;;5075942;28;20033;-74
2022/12/24 08:55:09;;;;;;;146.85;111.10;;;;;;;;;;5078394;28;20107;-74
2022/12/24 08:57:36;;;;;;;137.90;107.65;;;;;;;;;;5078639;28;20063;-73
2022/12/24 09:00:01;;;;;;;78.78;70.15;;;;;;;;;;5081148;28;20024;-72
2022/12/24 09:02:26;;;;;;;56.00;44.47;;;;;;;;;;5074541;28;20337;-72
2022/12/24 09:04:51;;;;;;;73.50;56.83;;;;;;;;;;5073433;28;20055;-76
2022/12/24 09:07:17;;;;;;;51.35;42.28;;;;;;;;;;5087948;28;20097;-73
2022/12/24 09:09:42;;;;;;;52.08;42.95;;;;;;;;;;5083945;28;20038;-74
2022/12/24 09:12:08;;;;;;;96.57;82.85;;;;;;;;;;5092145;28;20438;-75
2022/12/24 09:14:34;;;;;;;52.60;43.95;;;;;;;;;;5081860;28;20350;-74
2022/12/24 09:16:59;;;;;;;101.38;80.07;;;;;;;;;;5086228;28;20035;-73
2022/12/24 09:19:26;;;;;;;84.28;67.45;;;;;;;;;;5074814;28;20096;-74
2022/12/24 09:21:51;;;;;;;88.43;68.15;;;;;;;;;;5075584;28;20447;-74
2022/12/24 09:24:16;;;;;;;77.50;59.22;;;;;;;;;;5075453;28;20040;-73
2022/12/24 09:26:42;;;;;;;69.05;51.20;;;;;;;;;;5076976;28;20036;-73
2022/12/24 09:29:09;;;;;;;192.10;119.50;;;;;;;;;;5094080;28;20059;-74
2022/12/24 09:31:34;;;;;;;155.82;97.57;;;;;;;;;;5091085;28;20035;-73
2022/12/24 09:33:59;;;;;;;306.73;186.98;;;;;;;;;;5086293;28;20016;-75
2022/12/24 09:36:24;;;;;;;297.73;183.23;;;;;;;;;;5079992;28;20335;-73
2022/12/24 09:38:50;;;;;;;101.90;71.93;;;;;;;;;;5076462;28;20025;-73
2022/12/24 09:41:21;;;;;;;158.38;112.80;;;;;;;;;;5075468;28;20024;-74
2022/12/24 09:43:47;;;;;;;99.90;76.43;;;;;;;;;;5074958;28;20032;-73
2022/12/24 09:46:23;;;;;;;150.55;116.53;;;;;;;;;;5071422;28;20020;-78
2022/12/24 09:48:53;;;;;;;142.90;113.00;;;;;;;;;;5068556;28;20032;-77
2022/12/24 09:51:18;;;;;;;;;;;;;;;;;;5070814;28;20036;-73
2022/12/24 09:53:44;;;;;;;147.90;115.88;;;;;;;;;;5058950;28;19937;-73
2022/12/24 09:56:17;;;;;;;79.72;58.97;;;;;;;;;;5069275;28;20444;-73
2022/12/24 09:58:47;;;;;;;53.70;45.47;;;;;;;;;;5065486;28;20519;-76
2022/12/24 10:01:14;;;;;;;111.47;84.97;;;;;;;;;;5071708;28;20032;-73
2022/12/24 10:03:39;;;;;;;109.57;88.43;;;;;;;;;;5069201;28;20047;-76
2022/12/24 10:06:08;;;;;;;69.40;51.97;;;;;;;;;;5070341;28;20060;-74
2022/12/24 10:08:52;;;;;;;80.18;70.93;;;;;;;;;;5067566;28;20115;-73
2022/12/24 10:11:30;;;;;;;56.60;49.70;;;;;;;;;;5072849;28;20059;-75
2022/12/24 10:13:56;;;;;;;96.57;80.70;;;;;;;;;;5066764;28;20021;-75
2022/12/24 10:16:56;;;;;;;69.10;61.08;;;;;;;;;;5072314;28;20074;-77
2022/12/24 10:19:25;;;;;;;95.07;84.95;;;;;;;;;;5058822;28;20040;-74
2022/12/24 10:22:12;;;;;;;126.10;89.57;;;;;;;;;;5068892;28;20343;-76
2022/12/24 10:24:42;;;;;;;143.05;92.28;;;;;;;;;;5071644;28;20447;-72
2022/12/24 10:27:13;;;;;;;116.22;81.55;;;;;;;;;;5069114;28;20021;-74
2022/12/24 10:29:40;;;;;;;128.48;82.80;;;;;;;;;;5071416;28;20049;-77
2022/12/24 10:32:06;;;;;;;113.30;76.35;;;;;;;;;;5065770;28;20109;-77
2022/12/24 10:34:34;;;;;;;72.28;59.70;;;;;;;;;;5069575;28;20074;-73
2022/12/24 10:37:01;;;;;;;78.60;67.07;;;;;;;;;;5068114;28;20017;-77
2022/12/24 10:39:27;;;;;;;63.08;55.42;;;;;;;;;;5066340;28;20115;-74
2022/12/24 10:41:56;;;;;;;70.88;61.90;;;;;;;;;;5066941;28;20561;-72
2022/12/24 10:44:23;;;;;;;82.15;63.95;;;;;;;;;;5067605;28;20035;-74
2022/12/24 10:46:48;;;;;;;69.68;53.10;;;;;;;;;;5067342;28;20209;-73
2022/12/24 10:49:15;;;;;;;81.53;66.30;;;;;;;;;;5070098;28;20127;-72
2022/12/24 10:51:47;;;;;;;105.65;78.82;;;;;;;;;;5065393;28;20103;-74
2022/12/24 10:54:19;;;;;;;101.38;81.60;;;;;;;;;;5070983;28;20054;-76
2022/12/24 10:56:49;;;;;;;144.82;103.10;;;;;;;;;;5065621;28;20031;-72
2022/12/24 10:59:24;;;;;;;172.40;116.75;;;;;;;;;;5068089;28;20036;-76
2022/12/24 11:01:50;;;;;;;129.95;96.60;;;;;;;;;;5064738;28;20028;-77
2022/12/24 11:04:17;;;;;;;89.85;79.55;;;;;;;;;;5064836;28;20037;-73
2022/12/24 11:07:12;;;;;;;84.55;72.18;;;;;;;;;;5066994;28;20039;-73
2022/12/24 11:09:42;;;;;;;130.15;101.75;;;;;;;;;;5036083;28;20045;-73
2022/12/24 11:12:07;;;;;;;;;;;;;;;;;;5039215;28;20025;-75
2022/12/24 11:14:33;;;;;;;123.50;92.65;;;;;;;;;;5034966;28;19999;-78
2022/12/24 11:16:58;;;;;;;116.55;93.13;;;;;;;;;;5040850;28;20094;-73
2022/12/24 11:19:40;;;;;;;121.82;98.13;;;;;;;;;;5035126;28;21189;-73
2022/12/24 11:22:07;;;;;;;108.20;89.90;;;;;;;;;;5031361;28;20037;-74
2022/12/24 11:24:34;;;;;;;52.58;44.67;;;;;;;;;;5037892;28;20021;-79
2022/12/24 11:27:34;;;;;;;82.25;69.22;;;;;;;;;;5035998;28;20084;-75
2022/12/24 11:30:14;;;;;;;69.75;60.85;;;;;;;;;;4943018;28;20035;-72
2022/12/24 11:32:40;;;;;;;133.07;86.95;;;;;;;;;;4942422;28;20043;-73
2022/12/24 11:35:07;;;;;;;117.47;94.82;;;;;;;;;;4942011;28;20077;-72
2022/12/24 11:37:32;;;;;;;85.75;69.60;;;;;;;;;;4945198;28;20504;-75
2022/12/24 11:39:59;;;;;;;82.25;69.97;;;;;;;;;;4922581;28;20047;-80
2022/12/24 11:42:38;;;;;;;40.45;35.97;;;;;;;;;;4940304;28;20041;-74
2022/12/24 11:45:05;;;;;;;30.67;26.88;;;;;;;;;;4946434;28;20364;-73
2022/12/24 11:47:34;;;;;;;32.75;29.38;;;;;;;;;;4993911;28;20060;-79
2022/12/24 11:50:18;;;;;;;24.45;21.88;;;;;;;;;;4994952;28;20073;-78
2022/12/24 11:52:44;;;;;;;23.05;20.65;;;;;;;;;;4993581;28;20032;-76
2022/12/24 11:55:15;;;;;;;18.17;15.60;;;;;;;;;;4995131;28;20030;-74
2022/12/24 11:57:51;;;;;;;19.02;15.73;;;;;;;;;;4990954;28;20093;-74
2022/12/24 12:00:17;;;;;;;17.73;15.93;;;;;;;;;;4990403;28;20125;-78
2022/12/24 12:02:44;;;;;;;14.88;11.40;;;;;;;;;;4993961;28;20045;-75
2022/12/24 12:05:21;;;;;;;14.43;12.75;;;;;;;;;;5065030;28;20102;-76
2022/12/24 12:07:49;;;;;;;19.45;13.73;;;;;;;;;;5070825;28;20016;-74
2022/12/24 12:10:18;;;;;;;17.10;15.30;;;;;;;;;;5072668;28;20028;-74
2022/12/24 12:13:04;;;;;;;21.43;18.93;;;;;;;;;;5069070;28;20019;-77
2022/12/24 12:15:33;;;;;;;17.63;15.38;;;;;;;;;;5070980;28;21053;-75
2022/12/24 12:18:07;;;;;;;16.85;14.30;;;;;;;;;;5071183;28;20024;-77
2022/12/24 12:20:35;;;;;;;16.42;12.77;;;;;;;;;;5073724;28;20371;-75
2022/12/24 12:23:06;;;;;;;13.52;11.70;;;;;;;;;;5069370;28;20067;-79
2022/12/24 12:25:34;;;;;;;16.73;13.40;;;;;;;;;;5072802;28;20131;-77
2022/12/24 12:28:01;;;;;;;13.02;11.63;;;;;;;;;;5069585;28;20119;-77
2022/12/24 12:30:28;;;;;;;30.17;25.00;;;;;;;;;;5072316;28;20113;-76
2022/12/24 12:33:00;;;;;;;49.75;40.13;;;;;;;;;;5074985;28;20056;-76
2022/12/24 12:35:43;;;;;;;36.08;30.92;;;;;;;;;;5071041;28;20413;-75
2022/12/24 12:38:15;;;;;;;35.13;28.98;;;;;;;;;;5075255;28;20046;-77
2022/12/24 12:40:48;;;;;;;25.50;19.73;;;;;;;;;;5075381;28;20020;-77
2022/12/24 12:43:28;;;;;;;23.80;18.17;;;;;;;;;;5073937;28;20039;-77
2022/12/24 12:45:56;;;;;;;31.73;28.27;;;;;;;;;;5070797;28;20060;-76
2022/12/24 12:48:27;;;;;;;27.85;22.77;;;;;;;;;;5068404;28;20028;-76
2022/12/24 12:50:55;;;;;;;41.63;30.20;;;;;;;;;;5068466;28;20039;-77
2022/12/24 12:53:23;;;;;;;87.75;70.75;;;;;;;;;;5074097;28;20032;-75
2022/12/24 12:55:48;;;;;;;72.43;58.50;;;;;;;;;;5069047;28;20036;-76
2022/12/24 12:58:27;;;;;;;81.13;66.97;;;;;;;;;;5071992;28;20473;-75
2022/12/24 13:00:57;;;;;;;71.97;61.35;;;;;;;;;;5069889;28;20329;-77
2022/12/24 13:03:41;;;;;;;101.88;86.35;;;;;;;;;;5070141;28;20025;-75
2022/12/24 13:06:21;;;;;;;109.95;90.97;;;;;;;;;;5068162;28;20040;-75
2022/12/24 13:08:47;;;;;;;109.45;93.22;;;;;;;;;;5070344;28;20475;-74
2022/12/24 13:11:30;;;;;;;110.47;92.93;;;;;;;;;;5069125;28;20085;-74
2022/12/24 13:14:14;;;;;;;162.25;136.02;;;;;;;;;;5070253;28;20036;-76
2022/12/24 13:16:39;;;;;;;267.30;236.52;;;;;;;;;;5069475;28;20024;-75
2022/12/24 13:19:17;;;;;;;116.45;100.35;;;;;;;;;;5067069;28;20043;-76
2022/12/24 13:21:43;;;;;;;147.60;128.23;;;;;;;;;;5069489;28;20078;-76
2022/12/24 13:24:14;;;;;;;115.28;101.32;;;;;;;;;;5071141;28;20028;-78
2022/12/24 13:26:40;;;;;;;151.98;127.38;;;;;;;;;;5068567;28;20021;-79
2022/12/24 13:29:31;;;;;;;174.60;138.00;;;;;;;;;;5069945;28;20044;-79
2022/12/24 13:32:15;;;;;;;144.93;114.18;;;;;;;;;;5067968;28;20111;-80
2022/12/24 13:34:46;;;;;;;123.32;94.20;;;;;;;;;;5069654;28;20179;-79
2022/12/24 13:37:26;;;;;;;151.45;112.72;;;;;;;;;;5070837;28;20071;-76
2022/12/24 13:40:07;;;;;;;163.73;118.30;;;;;;;;;;5072215;28;20044;-73
2022/12/24 13:42:55;;;;;;;65.05;53.78;;;;;;;;;;5067709;28;20039;-77
2022/12/24 13:45:30;;;;;;;70.53;58.88;;;;;;;;;;5064134;28;20032;-78
2022/12/24 13:47:55;;;;;;;81.47;69.63;;;;;;;;;;5070559;28;20355;-73
2022/12/24 13:50:28;;;;;;;88.25;75.97;;;;;;;;;;5070381;28;20431;-77
2022/12/24 13:52:54;;;;;;;98.63;88.03;;;;;;;;;;5067579;28;20028;-77
2022/12/24 13:55:19;;;;;;;67.85;55.47;;;;;;;;;;5067263;28;20046;-76
2022/12/24 13:57:59;;;;;;;82.40;69.10;;;;;;;;;;5068205;28;20352;-73
2022/12/24 14:00:27;;;;;;;86.00;72.05;;;;;;;;;;5068231;28;20036;-74
2022/12/24 14:02:56;;;;;;;30.00;26.05;;;;;;;;;;5066627;28;20032;-74
2022/12/24 14:05:31;;;;;;;43.22;36.00;;;;;;;;;;5067335;28;20214;-74
2022/12/24 14:07:57;;;;;;;66.28;53.47;;;;;;;;;;5070809;28;20020;-73
2022/12/24 14:10:24;;;;;;;78.43;61.10;;;;;;;;;;5076341;28;20029;-75
2022/12/24 14:12:50;;;;;;;86.68;63.05;;;;;;;;;;5076125;28;20169;-73
2022/12/24 14:15:34;;;;;;;66.00;54.63;;;;;;;;;;5074921;28;20465;-73
2022/12/24 14:18:00;;;;;;;76.45;45.72;;;;;;;;;;5075609;28;20016;-76
2022/12/24 14:20:26;;;;;;;130.88;75.55;;;;;;;;;;5073361;28;20183;-77